createdAt,value
2023-04-29T00:01:06.015Z,7.90
2023-04-29T00:06:09.612Z,7.90
2023-04-29T00:11:13.036Z,7.80
2023-04-29T00:16:16.398Z,7.80
2023-04-29T00:21:19.814Z,7.90
2023-04-29T00:26:23.087Z,8.00
2023-04-29T00:31:26.491Z,7.80
2023-04-29T00:36:29.848Z,7.90
2023-04-29T00:41:33.923Z,7.80
2023-04-29T00:46:37.826Z,7.60
2023-04-29T00:51:42.463Z,7.50
2023-04-29T00:56:47.153Z,7.60
2023-04-29T01:01:50.558Z,7.60
2023-04-29T01:07:16.449Z,7.40
2023-04-29T01:12:38.141Z,7.20
2023-04-29T01:17:49.121Z,7.10
2023-04-29T01:22:52.406Z,7.00
2023-04-29T01:28:29.583Z,6.90
2023-04-29T01:33:39.533Z,6.70
2023-04-29T01:38:52.916Z,6.70
2023-04-29T01:43:59.278Z,6.60
2023-04-29T01:49:02.573Z,6.50
2023-04-29T01:54:05.772Z,6.40
2023-04-29T01:59:08.901Z,6.30
2023-04-29T02:04:12.224Z,6.30
2023-04-29T02:09:15.588Z,6.40
2023-04-29T02:14:19.055Z,6.30
2023-04-29T02:19:22.512Z,6.30
2023-04-29T02:24:25.666Z,6.50
2023-04-29T02:29:31.475Z,6.50
2023-04-29T02:34:35.090Z,6.50
2023-04-29T02:39:38.364Z,6.50
2023-04-29T02:44:42.904Z,6.50
2023-04-29T02:49:46.007Z,6.50
2023-04-29T02:54:49.149Z,6.50
2023-04-29T02:59:52.401Z,6.60
2023-04-29T03:04:56.047Z,6.50
2023-04-29T03:09:59.579Z,6.60
2023-04-29T03:15:02.878Z,6.80
2023-04-29T03:20:06.940Z,6.80
2023-04-29T03:25:10.903Z,6.80
2023-04-29T03:30:14.176Z,6.90
2023-04-29T03:35:17.606Z,7.00
2023-04-29T03:40:20.907Z,6.90
2023-04-29T03:45:24.477Z,6.90
2023-04-29T03:50:28.323Z,6.80
2023-04-29T03:55:31.754Z,6.90
2023-04-29T04:00:35.197Z,7.00
2023-04-29T04:05:38.312Z,7.00
2023-04-29T04:10:41.634Z,7.10
2023-04-29T04:15:51.712Z,7.00
2023-04-29T04:20:55.024Z,7.20
2023-04-29T04:25:58.472Z,7.10
2023-04-29T04:31:01.686Z,7.20
2023-04-29T04:36:05.206Z,7.40
2023-04-29T04:41:08.947Z,7.40
2023-04-29T04:46:13.843Z,7.50
2023-04-29T04:51:17.112Z,7.60
2023-04-29T04:56:20.940Z,7.80
2023-04-29T05:01:24.206Z,7.90
2023-04-29T05:06:27.900Z,8.10
2023-04-29T05:11:31.185Z,8.20
2023-04-29T05:16:34.749Z,8.40
2023-04-29T05:21:38.618Z,8.50
2023-04-29T05:26:44.458Z,8.70
2023-04-29T05:31:47.958Z,8.90
2023-04-29T05:36:51.286Z,9.10
2023-04-29T05:41:54.504Z,9.30
2023-04-29T05:46:58.074Z,9.40
2023-04-29T05:52:06.842Z,9.50
2023-04-29T05:57:10.240Z,9.80
2023-04-29T06:02:13.566Z,10.00
2023-04-29T06:07:19.980Z,10.20
2023-04-29T06:12:23.544Z,10.30
2023-04-29T06:17:29.617Z,10.40
2023-04-29T06:22:32.885Z,10.80
2023-04-29T06:27:36.579Z,11.10
2023-04-29T06:32:40.597Z,11.50
2023-04-29T06:37:43.852Z,11.40
2023-04-29T06:42:47.099Z,11.30
2023-04-29T06:47:50.496Z,11.30
2023-04-29T06:52:53.702Z,11.50
2023-04-29T06:57:58.162Z,11.60
2023-04-29T07:03:01.967Z,11.90
2023-04-29T07:08:06.523Z,12.40
2023-04-29T07:13:09.862Z,12.50
2023-04-29T07:18:14.451Z,12.50
2023-04-29T07:23:18.287Z,12.80
2023-04-29T07:28:21.792Z,12.90
2023-04-29T07:33:25.136Z,13.10
2023-04-29T07:38:30.151Z,13.20
2023-04-29T07:43:33.807Z,13.50
2023-04-29T07:48:40.300Z,13.60
2023-04-29T07:53:44.004Z,13.70
2023-04-29T07:58:47.621Z,13.90
2023-04-29T08:03:51.270Z,14.00
2023-04-29T08:08:56.720Z,13.90
2023-04-29T08:14:00.613Z,14.00
2023-04-29T08:19:03.974Z,13.90
2023-04-29T08:24:07.197Z,13.70
2023-04-29T08:29:10.526Z,13.40
2023-04-29T08:34:13.945Z,13.30
2023-04-29T08:39:17.516Z,13.30
2023-04-29T08:44:20.626Z,13.30
2023-04-29T08:49:24.333Z,13.20
2023-04-29T08:54:28.952Z,13.20
2023-04-29T08:59:32.800Z,13.30
2023-04-29T09:04:46.813Z,13.20
2023-04-29T09:09:52.336Z,13.10
2023-04-29T09:14:58.239Z,13.00
2023-04-29T09:20:03.128Z,12.90
2023-04-29T09:25:13.409Z,12.80
2023-04-29T09:30:17.395Z,12.80
2023-04-29T09:35:28.817Z,12.70
2023-04-29T09:40:40.466Z,12.60
2023-04-29T09:45:50.324Z,12.50
2023-04-29T09:51:06.346Z,12.50
2023-04-29T09:56:09.869Z,12.40
2023-04-29T10:01:14.692Z,12.40
2023-04-29T10:06:19.559Z,12.50
2023-04-29T10:11:23.062Z,12.50
2023-04-29T10:16:31.918Z,12.60
2023-04-29T10:21:35.737Z,12.60
2023-04-29T10:26:45.373Z,12.70
2023-04-29T10:31:51.765Z,12.70
2023-04-29T10:36:55.269Z,12.70
2023-04-29T10:41:58.883Z,12.90
2023-04-29T10:47:21.642Z,13.00
2023-04-29T10:52:25.036Z,13.20
2023-04-29T10:57:31.682Z,13.30
2023-04-29T11:02:35.052Z,13.30
2023-04-29T11:07:38.677Z,13.40
2023-04-29T11:12:42.088Z,13.40
2023-04-29T11:17:47.627Z,13.40
2023-04-29T11:22:53.172Z,13.50
2023-04-29T11:27:57.274Z,13.70
2023-04-29T11:33:00.822Z,14.00
2023-04-29T11:38:06.488Z,14.10
2023-04-29T11:43:09.772Z,14.40
2023-04-29T11:48:23.733Z,14.80
2023-04-29T11:53:30.779Z,15.30
2023-04-29T11:58:33.994Z,15.40
2023-04-29T12:03:37.587Z,15.60
2023-04-29T12:08:41.094Z,15.70
2023-04-29T12:13:44.325Z,15.80
2023-04-29T12:18:47.778Z,15.70
2023-04-29T12:23:52.899Z,16.00
2023-04-29T12:28:59.654Z,16.00
2023-04-29T12:34:08.300Z,16.20
2023-04-29T12:39:12.937Z,16.50
2023-04-29T12:44:16.801Z,16.80
2023-04-29T12:49:20.809Z,17.20
2023-04-29T12:54:24.081Z,17.50
2023-04-29T12:59:30.458Z,17.70
2023-04-29T13:04:34.100Z,18.00
2023-04-29T13:09:38.543Z,18.00
2023-04-29T13:14:42.279Z,18.00
2023-04-29T13:19:51.761Z,18.00
2023-04-29T13:24:55.752Z,18.00
2023-04-29T13:30:01.362Z,18.20
2023-04-29T13:35:05.209Z,18.40
2023-04-29T13:40:20.170Z,18.30
2023-04-29T13:45:25.789Z,18.10
2023-04-29T13:56:28.390Z,18.20
2023-04-29T14:01:34.216Z,18.20
2023-04-29T14:06:32.818Z,18.50
2023-04-29T14:11:38.066Z,18.80
2023-04-29T14:16:42.632Z,19.00
2023-04-29T14:21:46.621Z,19.20
2023-04-29T14:26:50.398Z,19.30
2023-04-29T14:31:53.620Z,19.60
2023-04-29T14:36:59.547Z,19.80
2023-04-29T14:42:04.324Z,19.50
2023-04-29T14:47:07.618Z,19.20
2023-04-29T14:52:10.879Z,18.80
2023-04-29T14:57:14.202Z,18.60
2023-04-29T15:02:17.511Z,18.40
2023-04-29T15:07:22.149Z,18.30
2023-04-29T15:12:25.700Z,18.20
2023-04-29T15:17:29.042Z,18.40
2023-04-29T15:22:32.528Z,18.40
2023-04-29T15:27:37.156Z,18.40
2023-04-29T15:32:40.398Z,18.30
2023-04-29T15:37:43.734Z,18.10
2023-04-29T15:42:46.932Z,18.10
2023-04-29T15:47:50.240Z,18.20
2023-04-29T15:52:56.231Z,18.20
2023-04-29T15:57:59.904Z,18.30
2023-04-29T16:03:03.661Z,18.30
2023-04-29T16:08:07.900Z,18.20
2023-04-29T16:13:11.828Z,18.20
2023-04-29T16:18:15.335Z,18.20
2023-04-29T16:23:19.069Z,18.10
2023-04-29T16:28:22.567Z,18.00
2023-04-29T16:33:25.734Z,17.80
2023-04-29T16:38:28.988Z,17.70
2023-04-29T16:43:32.346Z,17.60
2023-04-29T16:48:36.409Z,17.40
2023-04-29T16:53:39.614Z,17.40
2023-04-29T16:58:42.945Z,17.40
2023-04-29T17:03:50.029Z,17.30
2023-04-29T17:08:53.467Z,17.20
2023-04-29T17:13:56.740Z,17.20
2023-04-29T17:19:00.225Z,17.20
2023-04-29T17:24:03.647Z,17.10
2023-04-29T17:29:07.513Z,17.00
2023-04-29T17:34:19.343Z,16.90
2023-04-29T17:39:23.641Z,16.70
2023-04-29T17:44:28.280Z,16.60
2023-04-29T17:49:31.968Z,16.40
2023-04-29T17:54:43.852Z,16.10
2023-04-29T17:59:49.823Z,15.70
2023-04-29T18:04:57.269Z,15.50
2023-04-29T18:10:02.962Z,15.20
2023-04-29T18:15:10.744Z,14.70
2023-04-29T18:20:16.147Z,13.70
2023-04-29T18:25:19.985Z,13.40
2023-04-29T18:30:23.513Z,12.90
2023-04-29T18:35:27.912Z,12.50
2023-04-29T18:40:31.471Z,12.30
2023-04-29T18:45:35.946Z,12.30
2023-04-29T18:50:42.362Z,12.40
2023-04-29T18:55:47.642Z,12.50
2023-04-29T19:00:53.188Z,12.60
2023-04-29T19:06:00.415Z,12.60
2023-04-29T19:11:04.534Z,12.60
2023-04-29T19:16:08.383Z,12.50
2023-04-29T19:21:15.611Z,12.50
2023-04-29T19:26:19.751Z,12.10
2023-04-29T19:31:25.500Z,11.80
2023-04-29T19:36:31.234Z,11.80
2023-04-29T19:41:35.846Z,11.70
2023-04-29T19:46:41.191Z,11.60
2023-04-29T19:51:49.447Z,11.50
2023-04-29T19:56:55.842Z,11.30
2023-04-29T20:01:59.775Z,11.20
2023-04-29T20:07:04.545Z,11.10
2023-04-29T20:12:08.856Z,11.10
2023-04-29T20:17:12.784Z,11.10
2023-04-29T20:22:17.034Z,11.20
2023-04-29T20:27:21.737Z,11.30
2023-04-29T20:32:27.043Z,11.30
2023-04-29T20:37:33.197Z,11.30
2023-04-29T20:42:39.939Z,11.30
2023-04-29T20:47:44.362Z,11.30
2023-04-29T20:52:49.835Z,11.30
2023-04-29T20:57:53.014Z,11.30
2023-04-29T21:02:56.308Z,11.30
2023-04-29T21:07:59.574Z,11.20
2023-04-29T21:13:02.861Z,11.10
2023-04-29T21:18:07.618Z,11.10
2023-04-29T21:23:10.821Z,11.10
2023-04-29T21:28:15.542Z,11.00
2023-04-29T21:33:20.064Z,10.80
2023-04-29T21:38:23.763Z,10.60
2023-04-29T21:43:28.674Z,10.50
2023-04-29T21:48:32.567Z,10.20
2023-04-29T21:53:37.639Z,10.10
2023-04-29T21:58:41.962Z,10.10
2023-04-29T22:03:45.832Z,9.90
2023-04-29T22:08:49.429Z,9.80
2023-04-29T22:13:53.056Z,9.80
2023-04-29T22:18:57.986Z,9.80
2023-04-29T22:24:01.259Z,9.80
2023-04-29T22:29:04.945Z,9.80
2023-04-29T22:34:08.030Z,9.80
2023-04-29T22:39:11.626Z,9.70
2023-04-29T22:44:15.740Z,9.60
2023-04-29T22:49:18.965Z,9.60
2023-04-29T22:54:22.211Z,9.50
2023-04-29T22:59:25.910Z,9.40
2023-04-29T23:04:29.187Z,9.30
2023-04-29T23:09:32.555Z,9.20
2023-04-29T23:14:35.821Z,9.00
2023-04-29T23:19:39.083Z,8.90
2023-04-29T23:24:42.344Z,8.90
2023-04-29T23:29:45.665Z,8.80
2023-04-29T23:34:48.884Z,8.70
2023-04-29T23:39:52.353Z,8.60
2023-04-29T23:44:55.835Z,8.50
2023-04-29T23:49:59.265Z,8.40
2023-04-29T23:55:02.869Z,8.30
